Time;durP1;ratioP1;P1;durP2;ratioP2;P2;SDS_P1;SDS_P2;PMS_P1;PMS_P2;Temp;Humidity;BMP_temperature;BMP_pressure;BME280_temperature;BME280_humidity;BME280_pressure;Samples;Min_cycle;Max_cycle;Signal;HPM_P1;HPM_P2
2021/12/10 00:01:49;;;;;;;63.80;18.60;;;;;;;1.64;100.00;99534.77;106260;1318;137915;-57
2021/12/10 00:04:29;;;;;;;37.80;17.10;;;;;;;1.65;99.93;99537.47;106443;1313;22533;-57
2021/12/10 00:07:00;;;;;;;54.40;18.70;;;;;;;1.67;99.99;99541.20;106225;1313;138788;-57
2021/12/10 00:09:38;;;;;;;42.40;20.00;;;;;;;1.69;99.99;99546.99;106348;1313;22470;-57
2021/12/10 00:12:27;;;;;;;44.90;20.30;;;;;;;1.70;100.00;99542.47;106366;1313;22516;-58
2021/12/10 00:14:55;;;;;;;44.40;19.70;;;;;;;1.72;100.00;99542.91;106265;1316;138819;-58
2021/12/10 00:17:24;;;;;;;40.20;19.90;;;;;;;1.75;100.00;99548.86;106355;1313;22575;-58
2021/12/10 00:19:55;;;;;;;78.00;26.00;;;;;;;1.77;100.00;99556.61;106198;1316;140315;-57
2021/12/10 00:22:38;;;;;;;51.80;23.30;;;;;;;1.80;100.00;99553.94;106155;1316;22345;-58
2021/12/10 00:25:17;;;;;;;52.90;21.90;;;;;;;1.82;100.00;99552.21;106269;1313;138614;-60
2021/12/10 00:27:50;;;;;;;69.00;21.80;;;;;;;1.85;100.00;99548.55;106309;1320;22534;-58
2021/12/10 00:30:27;;;;;;;40.80;21.90;;;;;;;1.86;100.00;99550.37;106410;1315;22276;-58
2021/12/10 00:33:03;;;;;;;59.10;21.90;;;;;;;1.88;100.00;99555.08;106304;1316;137651;-58
2021/12/10 00:35:33;;;;;;;61.80;23.90;;;;;;;1.90;100.00;99553.51;106399;1313;22625;-58
2021/12/10 00:38:01;;;;;;;44.60;20.60;;;;;;;1.92;100.00;99549.68;106229;1313;139200;-58
2021/12/10 00:40:29;;;;;;;57.80;21.50;;;;;;;1.94;100.00;99551.02;106393;1313;22445;-57
2021/12/10 00:42:57;;;;;;;132.30;35.90;;;;;;;1.96;100.00;99549.66;106297;1313;138447;-57
2021/12/10 00:45:26;;;;;;;55.90;20.70;;;;;;;1.98;100.00;99544.05;106197;1313;23323;-58
2021/12/10 00:47:54;;;;;;;64.00;22.30;;;;;;;1.99;100.00;99539.63;106418;1316;23286;-58
2021/12/10 00:50:26;;;;;;;58.70;21.90;;;;;;;2.00;100.00;99540.34;106044;1316;139638;-58
2021/12/10 00:52:54;;;;;;;77.50;22.90;;;;;;;2.03;100.00;99545.73;106383;1313;23706;-58
2021/12/10 00:55:23;;;;;;;177.20;59.30;;;;;;;2.04;100.00;99546.65;106279;1317;139448;-58
2021/12/10 00:57:52;;;;;;;141.90;49.30;;;;;;;2.06;100.00;99548.15;106406;1313;23516;-58
2021/12/10 01:00:26;;;;;;;123.20;31.30;;;;;;;2.08;100.00;99546.05;106347;1313;23670;-58
2021/12/10 01:02:54;;;;;;;163.20;34.70;;;;;;;2.11;100.00;99540.48;106232;1313;138235;-58
2021/12/10 01:05:22;;;;;;;231.30;53.10;;;;;;;2.12;100.00;99533.02;106261;1313;22463;-58
2021/12/10 01:07:53;;;;;;;242.70;63.80;;;;;;;2.14;100.00;99531.86;106231;1316;138180;-57
2021/12/10 01:10:31;;;;;;;60.90;16.50;;;;;;;2.16;100.00;99519.98;106389;1317;22396;-58
2021/12/10 01:13:06;;;;;;;100.30;24.30;;;;;;;2.19;100.00;99516.55;106208;1315;138410;-59
2021/12/10 01:23:58;;;;;;;270.30;65.50;;;;;;;2.28;100.00;99514.35;106377;1313;23335;-59
2021/12/10 01:29:17;;;;;;;65.30;13.70;;;;;;;2.34;100.00;99512.73;106339;1316;22597;-57
2021/12/10 01:31:45;;;;;;;273.30;49.80;;;;;;;2.36;100.00;99507.06;106252;1316;138529;-58
2021/12/10 01:34:13;;;;;;;113.30;21.70;;;;;;;2.38;100.00;99504.09;106428;1316;23095;-57
2021/12/10 01:36:41;;;;;;;99.00;15.20;;;;;;;2.40;100.00;99502.16;106358;1313;22566;-58
2021/12/10 01:39:13;;;;;;;58.60;16.30;;;;;;;2.41;100.00;99497.90;106264;1313;137805;-58
2021/12/10 01:41:43;;;;;;;43.10;10.60;;;;;;;2.43;100.00;99494.52;106356;1313;22422;-58
2021/12/10 01:44:26;;;;;;;111.50;29.40;;;;;;;2.44;100.00;99495.46;106275;1313;139120;-58
2021/12/10 01:46:57;;;;;;;41.40;13.10;;;;;;;2.45;100.00;99484.38;106297;1313;23751;-58
2021/12/10 01:49:25;;;;;;;63.30;15.30;;;;;;;2.46;100.00;99481.52;106268;1313;139487;-58
2021/12/10 01:51:54;;;;;;;75.20;19.40;;;;;;;2.46;100.00;99483.36;106416;1313;22476;-58
2021/12/10 01:54:27;;;;;;;187.40;23.10;;;;;;;2.48;100.00;99481.80;106348;1313;23596;-58
2021/12/10 01:56:56;;;;;;;89.70;23.30;;;;;;;2.50;100.00;99480.80;106237;1313;139163;-56
2021/12/10 01:59:27;;;;;;;168.80;23.90;;;;;;;2.52;100.00;99481.97;106351;1316;22662;-56
2021/12/10 02:01:57;;;;;;;294.30;62.60;;;;;;;2.53;100.00;99479.66;106130;1318;139408;-56
2021/12/10 02:04:28;;;;;;;83.60;24.50;;;;;;;2.56;100.00;99485.45;106345;1313;22567;-56
2021/12/10 02:06:56;;;;;;;64.80;14.20;;;;;;;2.58;100.00;99492.36;106107;1316;138250;-55
2021/12/10 02:09:24;;;;;;;130.80;35.50;;;;;;;2.60;100.00;99496.70;106386;1318;23260;-56
2021/12/10 02:11:52;;;;;;;64.80;15.40;;;;;;;2.62;100.00;99500.70;106368;1316;23414;-55
2021/12/10 02:14:24;;;;;;;56.70;17.40;;;;;;;2.63;100.00;99498.88;106263;1316;139350;-56
2021/12/10 02:16:55;;;;;;;118.50;30.10;;;;;;;2.65;100.00;99499.13;106384;1313;23525;-56
2021/12/10 02:19:23;;;;;;;68.20;21.50;;;;;;;2.67;100.00;99494.63;106251;1313;138719;-56
2021/12/10 02:21:51;;;;;;;63.30;17.20;;;;;;;2.69;100.00;99497.07;106332;1316;22485;-56
2021/12/10 02:24:20;;;;;;;104.10;19.60;;;;;;;2.70;100.00;99499.80;106382;1313;22571;-56
2021/12/10 02:26:57;;;;;;;82.20;19.40;;;;;;;2.73;100.00;99505.27;103401;1318;138922;-56
2021/12/10 02:29:28;;;;;;;56.10;21.40;;;;;;;2.74;100.00;99506.01;106353;1313;24704;-58
2021/12/10 02:31:56;;;;;;;79.60;27.60;;;;;;;2.76;100.00;99501.27;106215;1314;138416;-58
2021/12/10 02:34:24;;;;;;;44.80;21.70;;;;;;;2.78;100.00;99501.40;106353;1313;23161;-58
2021/12/10 02:36:54;;;;;;;73.00;34.10;;;;;;;2.79;100.00;99496.36;106232;1313;138637;-58
2021/12/10 02:39:25;;;;;;;42.20;17.00;;;;;;;2.80;100.00;99501.03;106392;1313;22416;-58
2021/12/10 02:41:53;;;;;;;60.30;19.00;;;;;;;2.82;100.00;99495.03;106384;1315;22541;-58
2021/12/10 02:44:25;;;;;;;92.50;25.80;;;;;;;2.85;100.00;99498.84;106247;1316;138281;-58
2021/12/10 02:46:54;;;;;;;130.70;42.90;;;;;;;2.87;100.00;99497.23;106354;1313;22477;-58
2021/12/10 02:49:22;;;;;;;39.70;17.00;;;;;;;2.89;100.00;99505.23;106275;1313;139478;-58
2021/12/10 02:51:50;;;;;;;33.10;14.50;;;;;;;2.90;100.00;99506.77;106402;1313;23173;-58
2021/12/10 02:54:23;;;;;;;36.30;14.80;;;;;;;2.90;100.00;99494.84;106371;1313;22476;-58
2021/12/10 02:56:51;;;;;;;37.10;16.50;;;;;;;2.93;100.00;99498.02;106312;1313;138175;-58
2021/12/10 02:59:19;;;;;;;49.30;17.00;;;;;;;2.95;100.00;99493.30;106367;1313;23383;-58
2021/12/10 03:01:50;;;;;;;43.10;16.10;;;;;;;2.96;100.00;99492.08;106304;1313;138555;-61
2021/12/10 03:04:21;;;;;;;41.20;17.60;;;;;;;2.98;100.00;99495.21;106417;1315;22497;-58
2021/12/10 03:06:54;;;;;;;35.70;17.10;;;;;;;2.99;100.00;99494.68;106191;1316;139194;-58
2021/12/10 03:09:24;;;;;;;54.80;16.80;;;;;;;3.01;100.00;99498.74;106312;1313;22527;-58
2021/12/10 03:11:56;;;;;;;72.70;19.10;;;;;;;3.02;100.00;99495.67;106303;1313;22464;-58
2021/12/10 03:14:28;;;;;;;33.50;14.70;;;;;;;3.04;100.00;99496.89;106268;1313;138689;-58
2021/12/10 03:17:00;;;;;;;39.00;14.20;;;;;;;3.05;100.00;99502.10;106418;1313;22372;-58
2021/12/10 03:19:28;;;;;;;34.80;14.30;;;;;;;3.06;100.00;99511.96;106266;1313;138578;-58
2021/12/10 03:21:57;;;;;;;43.90;16.80;;;;;;;3.07;100.00;99513.83;106376;1313;22578;-58
2021/12/10 03:24:26;;;;;;;40.00;15.20;;;;;;;3.07;100.00;99515.81;106412;1316;23217;-58
2021/12/10 03:26:57;;;;;;;39.50;16.10;;;;;;;3.09;100.00;99514.52;103172;1316;140245;-55
2021/12/10 03:29:28;;;;;;;46.50;14.70;;;;;;;3.09;100.00;99511.84;102121;1313;25360;-58
2021/12/10 03:31:58;;;;;;;41.80;14.30;;;;;;;3.08;100.00;99505.46;106253;1317;138164;-57
2021/12/10 03:34:26;;;;;;;33.40;15.50;;;;;;;3.08;100.00;99503.89;106394;1313;22532;-57
2021/12/10 03:36:54;;;;;;;42.20;15.20;;;;;;;3.08;100.00;99500.95;106218;1318;139489;-57
2021/12/10 03:39:23;;;;;;;32.20;14.00;;;;;;;3.08;100.00;99495.94;106391;1316;23281;-57
2021/12/10 03:41:52;;;;;;;51.10;18.00;;;;;;;3.09;100.00;99495.11;106375;1313;22476;-57
2021/12/10 03:44:20;;;;;;;29.30;14.40;;;;;;;3.09;100.00;99495.85;106237;1316;138161;-57
2021/12/10 03:46:48;;;;;;;29.10;15.70;;;;;;;3.10;100.00;99494.29;106365;1316;22452;-57
2021/12/10 03:49:16;;;;;;;27.00;14.80;;;;;;;3.10;100.00;99505.66;106220;1313;138554;-57
2021/12/10 03:51:44;;;;;;;32.70;14.50;;;;;;;3.12;100.00;99509.55;106421;1317;22586;-57
2021/12/10 03:54:13;;;;;;;47.10;16.30;;;;;;;3.12;100.00;99510.27;106306;1315;22499;-57
2021/12/10 03:56:41;;;;;;;43.70;16.20;;;;;;;3.13;100.00;99518.92;105917;1315;140049;-57
2021/12/10 03:59:11;;;;;;;35.70;14.70;;;;;;;3.12;100.00;99519.05;106359;1316;22658;-58
2021/12/10 04:01:42;;;;;;;35.00;15.40;;;;;;;3.14;100.00;99519.58;105753;1317;138504;-58
2021/12/10 04:04:14;;;;;;;43.50;16.40;;;;;;;3.15;100.00;99513.99;106374;1315;22552;-58
2021/12/10 04:06:42;;;;;;;40.60;15.40;;;;;;;3.15;100.00;99514.66;106398;1313;22379;-58
2021/12/10 04:09:10;;;;;;;42.10;15.90;;;;;;;3.15;100.00;99517.02;106273;1313;138242;-58
2021/12/10 04:11:39;;;;;;;36.00;16.40;;;;;;;3.16;100.00;99513.83;106412;1313;22525;-58
2021/12/10 04:14:08;;;;;;;46.80;21.90;;;;;;;3.17;100.00;99508.14;106299;1313;138506;-58
2021/12/10 04:16:39;;;;;;;58.30;16.20;;;;;;;3.18;100.00;99513.21;106379;1315;22484;-58
2021/12/10 04:19:09;;;;;;;41.20;16.00;;;;;;;3.19;100.00;99512.39;106318;1313;139286;-59
2021/12/10 04:21:40;;;;;;;33.10;15.40;;;;;;;3.19;100.00;99511.15;106249;1315;22467;-58
2021/12/10 04:24:11;;;;;;;61.90;17.40;;;;;;;3.19;100.00;99512.39;106363;1313;22462;-58
2021/12/10 04:26:40;;;;;;;42.10;20.10;;;;;;;3.19;100.00;99514.29;106306;1313;139904;-58
2021/12/10 04:29:08;;;;;;;38.80;18.90;;;;;;;3.20;100.00;99505.02;106433;1316;22458;-59
2021/12/10 04:31:36;;;;;;;32.30;17.60;;;;;;;3.20;100.00;99502.86;106249;1316;138396;-58
2021/12/10 04:34:05;;;;;;;33.00;17.00;;;;;;;3.22;100.00;99504.31;106405;1313;22445;-57
2021/12/10 04:36:34;;;;;;;31.80;18.00;;;;;;;3.23;100.00;99506.01;106407;1313;22462;-57
2021/12/10 04:39:03;;;;;;;36.60;16.20;;;;;;;3.23;100.00;99503.98;106272;1313;138170;-57
2021/12/10 04:41:31;;;;;;;32.30;17.80;;;;;;;3.24;100.00;99513.92;106343;1316;22482;-57
2021/12/10 04:43:59;;;;;;;33.40;18.30;;;;;;;3.24;100.00;99517.52;105821;1316;138512;-57
2021/12/10 04:46:27;;;;;;;33.80;18.10;;;;;;;3.24;100.00;99510.86;106406;1316;22441;-57
2021/12/10 04:48:58;;;;;;;32.40;19.00;;;;;;;3.25;100.00;99498.77;106266;1313;138305;-57
2021/12/10 04:51:28;;;;;;;32.20;18.70;;;;;;;3.24;100.00;99490.68;106342;1313;22494;-57
2021/12/10 04:53:57;;;;;;;37.50;17.90;;;;;;;3.23;100.00;99489.73;106234;1316;22517;-58
2021/12/10 04:56:26;;;;;;;36.70;18.60;;;;;;;3.23;100.00;99481.70;106319;1313;140780;-57
2021/12/10 04:58:54;;;;;;;30.30;19.20;;;;;;;3.23;100.00;99484.23;106367;1313;22626;-57
2021/12/10 05:01:23;;;;;;;44.90;21.70;;;;;;;3.22;100.00;99480.54;106257;1313;138600;-58
2021/12/10 05:03:51;;;;;;;39.00;21.10;;;;;;;3.22;100.00;99476.15;106371;1316;22639;-57
2021/12/10 05:06:19;;;;;;;35.30;20.10;;;;;;;3.21;100.00;99481.77;106431;1315;22457;-57
2021/12/10 05:08:47;;;;;;;32.70;19.40;;;;;;;3.20;100.00;99484.39;106284;1313;138029;-57
2021/12/10 05:11:15;;;;;;;40.20;21.90;;;;;;;3.21;100.00;99488.77;106349;1313;22361;-57
2021/12/10 05:13:44;;;;;;;33.20;19.40;;;;;;;3.20;100.00;99490.35;106314;1313;139274;-57
2021/12/10 05:16:12;;;;;;;35.30;21.30;;;;;;;3.20;100.00;99490.52;106246;1315;22446;-58
2021/12/10 05:18:44;;;;;;;32.90;18.90;;;;;;;3.20;100.00;99489.98;106319;1315;22392;-58
2021/12/10 05:21:12;;;;;;;39.50;21.00;;;;;;;3.21;100.00;99493.63;106297;1313;138478;-58
2021/12/10 05:23:41;;;;;;;49.20;28.90;;;;;;;3.20;100.00;99496.73;106379;1313;23234;-58
2021/12/10 05:26:09;;;;;;;58.10;29.40;;;;;;;3.22;100.00;99500.75;104594;1315;139069;-58
2021/12/10 05:28:37;;;;;;;58.40;31.80;;;;;;;3.22;100.00;99500.54;102096;1313;22637;-57
2021/12/10 05:31:10;;;;;;;59.60;31.40;;;;;;;3.22;100.00;99497.60;101972;1316;138973;-57
2021/12/10 05:33:38;;;;;;;58.00;29.90;;;;;;;3.22;100.00;99508.08;102233;1316;25454;-56
2021/12/10 05:36:08;;;;;;;73.70;36.50;;;;;;;3.23;100.00;99520.38;102241;1313;22662;-57
2021/12/10 05:38:36;;;;;;;76.40;37.70;;;;;;;3.23;100.00;99526.47;106142;1313;138275;-59
2021/12/10 05:41:06;;;;;;;154.30;68.80;;;;;;;3.23;100.00;99533.21;106427;1313;22450;-58
2021/12/10 05:43:34;;;;;;;91.10;37.80;;;;;;;3.24;100.00;99530.16;106265;1313;138602;-59
2021/12/10 05:46:02;;;;;;;76.00;36.50;;;;;;;3.26;100.00;99532.48;106360;1314;22587;-59
2021/12/10 05:48:31;;;;;;;58.70;30.90;;;;;;;3.27;100.00;99528.66;106390;1313;23531;-58
2021/12/10 05:50:59;;;;;;;71.00;36.70;;;;;;;3.29;100.00;99534.59;106320;1313;138299;-59
2021/12/10 05:53:27;;;;;;;77.80;36.90;;;;;;;3.30;100.00;99533.13;106422;1316;23125;-58
2021/12/10 05:55:56;;;;;;;45.30;26.90;;;;;;;3.31;100.00;99524.77;105871;1313;140193;-58
2021/12/10 05:58:24;;;;;;;73.70;45.90;;;;;;;3.33;100.00;99527.89;105681;1316;22555;-58
2021/12/10 06:01:03;;;;;;;48.80;26.50;;;;;;;3.34;100.00;99527.89;106284;1313;141229;-59
2021/12/10 06:03:32;;;;;;;52.50;29.30;;;;;;;3.36;100.00;99527.96;106346;1313;22453;-58
2021/12/10 06:06:01;;;;;;;55.30;30.30;;;;;;;3.37;100.00;99529.46;106322;1313;23367;-58
2021/12/10 06:08:31;;;;;;;52.20;29.90;;;;;;;3.39;100.00;99531.20;106167;1313;138179;-58
2021/12/10 06:10:59;;;;;;;49.10;28.80;;;;;;;3.41;100.00;99526.60;106327;1313;24407;-58
2021/12/10 06:13:27;;;;;;;45.90;26.80;;;;;;;3.43;100.00;99527.75;106242;1313;139505;-58
2021/12/10 06:15:55;;;;;;;50.40;27.80;;;;;;;3.44;100.00;99528.17;106115;1316;303205;-58
2021/12/10 06:18:24;;;;;;;49.60;27.00;;;;;;;3.45;100.00;99530.37;106396;1316;23238;-58
2021/12/10 06:20:52;;;;;;;65.00;35.10;;;;;;;3.46;100.00;99534.61;105987;1316;139286;-59
2021/12/10 06:23:21;;;;;;;44.40;25.10;;;;;;;3.48;100.00;99527.42;106311;1313;23311;-58
2021/12/10 06:25:49;;;;;;;47.70;31.40;;;;;;;3.50;100.00;99532.70;105132;1313;138602;-58
2021/12/10 06:28:17;;;;;;;43.10;27.30;;;;;;;3.50;100.00;99532.06;106203;1316;24445;-58
2021/12/10 06:30:46;;;;;;;38.00;23.40;;;;;;;3.52;100.00;99533.97;106350;1316;22453;-58
2021/12/10 06:33:16;;;;;;;57.10;40.00;;;;;;;3.53;100.00;99536.67;106245;1315;139454;-58
2021/12/10 06:35:46;;;;;;;46.90;29.50;;;;;;;3.55;100.00;99535.72;106402;1313;22582;-59
2021/12/10 06:38:16;;;;;;;51.70;28.50;;;;;;;3.57;100.00;99538.77;106295;1316;138719;-59
2021/12/10 06:40:44;;;;;;;61.90;32.60;;;;;;;3.57;100.00;99536.05;106355;1313;22572;-59
2021/12/10 06:43:12;;;;;;;55.10;29.30;;;;;;;3.58;100.00;99535.17;106199;1313;138507;-58
2021/12/10 06:45:42;;;;;;;40.70;24.20;;;;;;;3.58;100.00;99529.04;106401;1313;22444;-58
2021/12/10 06:48:11;;;;;;;40.40;23.00;;;;;;;3.60;100.00;99532.39;106323;1315;23952;-59
2021/12/10 06:50:43;;;;;;;36.10;22.30;;;;;;;3.60;100.00;99528.20;106210;1313;138122;-58
2021/12/10 06:53:12;;;;;;;37.20;22.60;;;;;;;3.62;100.00;99523.77;106344;1313;22442;-59
2021/12/10 06:55:40;;;;;;;32.70;20.80;;;;;;;3.64;100.00;99523.94;106223;1316;139988;-59
2021/12/10 06:58:08;;;;;;;33.20;22.00;;;;;;;3.65;100.00;99522.65;106340;1313;23120;-59
2021/12/10 07:00:45;;;;;;;37.70;22.20;;;;;;;3.65;100.00;99514.36;106267;1316;22463;-59
2021/12/10 07:03:16;;;;;;;36.80;23.00;;;;;;;3.67;100.00;99514.65;106319;1313;137985;-59
2021/12/10 07:05:44;;;;;;;34.60;22.10;;;;;;;3.69;100.00;99525.35;106396;1316;23064;-59
2021/12/10 07:08:12;;;;;;;40.70;25.20;;;;;;;3.71;100.00;99535.66;106296;1313;138974;-59
2021/12/10 07:10:41;;;;;;;40.40;25.60;;;;;;;3.73;100.00;99536.65;106025;1317;22474;-59
2021/12/10 07:13:11;;;;;;;38.90;24.90;;;;;;;3.75;100.00;99535.80;106330;1313;139341;-59
2021/12/10 07:15:42;;;;;;;35.50;23.80;;;;;;;3.77;100.00;99528.53;106437;1313;23229;-58
2021/12/10 07:18:10;;;;;;;34.30;22.50;;;;;;;3.79;100.00;99520.35;106441;1313;22540;-58
2021/12/10 07:20:39;;;;;;;39.00;23.20;;;;;;;3.80;100.00;99516.41;106268;1313;138183;-58
2021/12/10 07:23:08;;;;;;;40.80;22.70;;;;;;;3.82;100.00;99509.98;105833;1316;24722;-58
2021/12/10 07:25:36;;;;;;;35.40;21.30;;;;;;;3.84;100.00;99512.51;106339;1316;138506;-58
2021/12/10 07:28:04;;;;;;;36.80;27.30;;;;;;;3.86;100.00;99508.27;106425;1313;22265;-58
2021/12/10 07:30:32;;;;;;;35.20;22.70;;;;;;;3.88;100.00;99503.48;106404;1316;22384;-58
2021/12/10 07:33:06;;;;;;;33.70;22.50;;;;;;;3.90;100.00;99501.68;106364;1313;138687;-58
2021/12/10 07:35:35;;;;;;;35.30;22.00;;;;;;;3.93;100.00;99504.45;106407;1313;22470;-58
2021/12/10 07:38:03;;;;;;;35.70;22.90;;;;;;;3.94;100.00;99498.02;106195;1315;138343;-58
2021/12/10 07:40:32;;;;;;;32.90;21.60;;;;;;;3.96;100.00;99481.89;105989;1313;22436;-58
2021/12/10 07:43:00;;;;;;;36.20;21.70;;;;;;;3.97;100.00;99462.84;106326;1313;138537;-58
2021/12/10 07:45:28;;;;;;;31.40;19.80;;;;;;;3.99;100.00;99461.51;106402;1313;22599;-58
2021/12/10 07:47:58;;;;;;;34.80;21.30;;;;;;;4.00;100.00;99467.60;106458;1313;23149;-58
2021/12/10 07:50:29;;;;;;;36.30;22.60;;;;;;;4.02;100.00;99468.22;106328;1317;138209;-58
2021/12/10 07:52:57;;;;;;;32.40;20.60;;;;;;;4.03;100.00;99468.02;106433;1316;22240;-58
2021/12/10 07:55:30;;;;;;;31.90;20.90;;;;;;;4.06;100.00;99465.17;106308;1316;138583;-58
2021/12/10 07:57:59;;;;;;;35.70;22.40;;;;;;;4.07;100.00;99463.73;106452;1313;22626;-58
2021/12/10 08:00:29;;;;;;;32.40;20.20;;;;;;;4.09;100.00;99467.40;106470;1316;22470;-58
2021/12/10 08:02:57;;;;;;;34.20;20.70;;;;;;;4.12;100.00;99476.97;106260;1313;138255;-58
2021/12/10 08:05:27;;;;;;;36.00;21.50;;;;;;;4.15;100.00;99487.58;105891;1313;23344;-58
2021/12/10 08:08:00;;;;;;;28.30;20.00;;;;;;;4.19;100.00;99488.28;106285;1313;139077;-58
2021/12/10 08:10:28;;;;;;;30.90;18.90;;;;;;;4.22;100.00;99495.02;106317;1313;23483;-57
2021/12/10 08:12:56;;;;;;;34.60;21.10;;;;;;;4.24;100.00;99483.52;106303;1319;138852;-57
2021/12/10 08:15:24;;;;;;;33.80;20.10;;;;;;;4.27;100.00;99477.63;106431;1316;23148;-57
2021/12/10 08:17:54;;;;;;;30.80;20.80;;;;;;;4.30;100.00;99479.67;106428;1316;22555;-57
2021/12/10 08:20:23;;;;;;;31.80;21.10;;;;;;;4.33;100.00;99474.30;106269;1319;139038;-57
2021/12/10 08:22:52;;;;;;;35.60;21.60;;;;;;;4.35;100.00;99466.64;106409;1316;22471;-57
2021/12/10 08:25:22;;;;;;;30.50;20.30;;;;;;;4.38;100.00;99459.36;105904;1316;141405;-55
2021/12/10 08:27:50;;;;;;;28.30;21.20;;;;;;;4.40;99.92;99451.67;102210;1316;22665;-56
2021/12/10 08:30:19;;;;;;;30.80;20.70;;;;;;;4.43;100.00;99454.31;106340;1317;22565;-57
2021/12/10 08:32:47;;;;;;;31.30;21.10;;;;;;;4.45;99.91;99454.83;106158;1322;138200;-58
2021/12/10 08:35:19;;;;;;;31.30;20.80;;;;;;;4.48;99.86;99459.44;106424;1317;23236;-58
2021/12/10 08:37:47;;;;;;;36.40;22.20;;;;;;;4.50;99.87;99465.80;106240;1316;139959;-59
2021/12/10 08:40:19;;;;;;;35.70;21.60;;;;;;;4.52;100.00;99466.05;106399;1317;22416;-59
2021/12/10 08:42:47;;;;;;;34.20;21.10;;;;;;;4.54;99.85;99466.08;106396;1316;22622;-59
2021/12/10 08:45:15;;;;;;;30.60;21.70;;;;;;;4.57;99.85;99464.48;106273;1319;137859;-59
2021/12/10 08:47:44;;;;;;;34.70;21.90;;;;;;;4.59;99.85;99464.71;106384;1313;22474;-59
2021/12/10 08:50:12;;;;;;;31.50;21.30;;;;;;;4.60;99.57;99459.48;106254;1315;140374;-59
2021/12/10 08:52:40;;;;;;;35.10;20.80;;;;;;;4.61;99.55;99455.90;106160;1316;22657;-59
2021/12/10 08:55:10;;;;;;;32.20;20.40;;;;;;;4.62;99.53;99455.75;106261;1319;138164;-59
2021/12/10 08:57:38;;;;;;;28.80;20.20;;;;;;;4.64;99.35;99454.39;106363;1315;22716;-59
2021/12/10 09:00:07;;;;;;;35.40;21.50;;;;;;;4.66;99.50;99449.54;106359;1317;22477;-59
2021/12/10 09:02:37;;;;;;;34.00;22.50;;;;;;;4.66;99.20;99445.71;106149;1320;138203;-59
2021/12/10 09:05:07;;;;;;;29.00;21.50;;;;;;;4.67;99.15;99447.73;106410;1316;22564;-58
2021/12/10 09:07:38;;;;;;;33.90;23.30;;;;;;;4.68;99.07;99448.15;106291;1316;139112;-59
2021/12/10 09:10:08;;;;;;;35.20;23.50;;;;;;;4.68;98.96;99444.37;106341;1316;24469;-59
2021/12/10 09:12:37;;;;;;;36.50;25.00;;;;;;;4.69;98.94;99440.38;106360;1317;22629;-59
2021/12/10 09:15:07;;;;;;;36.50;26.00;;;;;;;4.70;98.76;99435.59;106274;1315;138327;-58
2021/12/10 09:17:36;;;;;;;35.40;24.80;;;;;;;4.71;98.57;99440.37;106204;1316;22506;-58
2021/12/10 09:20:14;;;;;;;34.40;23.70;;;;;;;4.72;98.74;99434.34;106278;1316;139152;-59
2021/12/10 09:22:42;;;;;;;40.80;23.70;;;;;;;4.73;98.50;99431.59;106457;1317;22408;-59
2021/12/10 09:25:11;;;;;;;38.10;26.50;;;;;;;4.74;98.35;99425.56;106184;1316;138223;-59
2021/12/10 09:27:38;;;;;;;40.60;27.80;;;;;;;4.74;98.41;99424.52;106421;1316;22447;-59
2021/12/10 09:30:08;;;;;;;45.10;29.20;;;;;;;4.75;98.01;99421.98;106360;1316;23455;-59
2021/12/10 09:32:38;;;;;;;41.30;27.00;;;;;;;4.74;98.19;99418.84;106205;1316;138334;-57
2021/12/10 09:35:10;;;;;;;37.90;26.60;;;;;;;4.74;98.07;99411.86;106449;1316;22490;-56
2021/12/10 09:37:43;;;;;;;;;;;;;;;4.74;97.84;99412.90;106310;1316;139540;-58
2021/12/10 09:40:17;;;;;;;32.10;23.40;;;;;;;4.74;97.43;99412.69;106363;1316;22507;-57
2021/12/10 09:42:45;;;;;;;35.20;23.90;;;;;;;4.74;97.67;99411.23;106430;1317;22485;-57
2021/12/10 09:45:16;;;;;;;34.60;23.20;;;;;;;4.75;97.44;99411.52;105707;1316;137765;-57
2021/12/10 09:47:44;;;;;;;31.40;22.90;;;;;;;4.75;97.38;99401.06;106358;1315;22536;-57
2021/12/10 09:50:14;;;;;;;31.40;23.20;;;;;;;4.76;97.28;99404.20;106277;1317;138425;-57
2021/12/10 09:52:42;;;;;;;32.30;23.40;;;;;;;4.75;97.53;99404.09;106436;1319;22411;-57
2021/12/10 09:55:12;;;;;;;36.00;23.70;;;;;;;4.75;97.20;99405.33;106395;1319;138699;-57
2021/12/10 09:57:40;;;;;;;35.40;25.10;;;;;;;4.76;97.12;99405.92;106429;1316;22304;-57
2021/12/10 10:00:28;;;;;;;34.50;23.60;;;;;;;4.76;97.06;99403.77;106418;1316;22570;-57
2021/12/10 10:02:57;;;;;;;32.80;23.20;;;;;;;4.77;96.86;99401.58;106327;1319;138965;-57
2021/12/10 10:05:27;;;;;;;37.70;26.70;;;;;;;4.77;96.61;99400.35;105829;1317;22571;-57
2021/12/10 10:07:59;;;;;;;41.50;26.90;;;;;;;4.79;96.90;99395.27;106311;1317;138139;-57
2021/12/10 10:10:29;;;;;;;41.70;26.40;;;;;;;4.79;96.87;99392.69;106427;1320;22433;-57
2021/12/10 10:12:58;;;;;;;44.40;29.20;;;;;;;4.81;96.97;99392.80;106310;1316;140221;-57
2021/12/10 10:18:23;;;;;;;47.20;28.80;;;;;;;4.87;96.74;99390.78;99465;1352;545262;-55
2021/12/10 10:20:58;;;;;;;39.20;26.00;;;;;;;4.87;96.67;99386.73;101102;1329;137537;-55
2021/12/10 10:23:28;;;;;;;39.50;27.70;;;;;;;4.88;96.18;99387.14;105291;1328;22541;-57
2021/12/10 10:25:57;;;;;;;35.50;25.50;;;;;;;4.88;96.40;99378.02;105224;1330;138098;-57
2021/12/10 10:28:31;;;;;;;35.70;25.50;;;;;;;4.89;96.16;99380.77;105287;1328;22522;-57
2021/12/10 10:31:03;;;;;;;41.30;26.40;;;;;;;4.89;96.16;99366.72;105118;1328;140082;-57
2021/12/10 10:33:33;;;;;;;39.60;26.00;;;;;;;4.91;96.46;99371.17;105394;1325;22428;-57
2021/12/10 10:36:06;;;;;;;35.40;24.00;;;;;;;4.91;96.14;99369.13;105422;1326;22698;-57
2021/12/10 10:38:34;;;;;;;35.20;23.90;;;;;;;4.91;95.87;99368.21;105368;1325;137718;-57
2021/12/10 10:41:05;;;;;;;36.40;25.00;;;;;;;4.91;96.39;99361.73;105408;1325;22655;-57
2021/12/10 10:43:33;;;;;;;38.00;26.20;;;;;;;4.91;96.03;99357.84;105321;1326;138708;-57
2021/12/10 10:46:01;;;;;;;41.80;25.70;;;;;;;4.91;96.31;99353.73;105443;1325;23350;-57
2021/12/10 10:48:32;;;;;;;39.80;26.20;;;;;;;4.90;95.81;99349.36;105453;1325;22606;-56
2021/12/10 10:51:04;;;;;;;36.20;26.10;;;;;;;4.88;96.19;99343.80;105327;1326;137610;-56
2021/12/10 10:54:14;;;;;;;36.90;25.40;;;;;;;4.90;96.00;99337.80;99610;1350;545453;-56
2021/12/10 10:56:44;;;;;;;43.00;27.90;;;;;;;4.86;95.98;99334.95;105043;1322;137625;-57
2021/12/10 10:59:18;;;;;;;40.20;27.40;;;;;;;4.85;96.01;99333.21;105123;1329;22305;-58
2021/12/10 11:01:57;;;;;;;37.80;27.60;;;;;;;4.83;96.28;99329.54;105110;1334;138207;-58
2021/12/10 11:04:28;;;;;;;39.90;28.20;;;;;;;4.80;95.98;99329.94;105124;1328;22663;-58
2021/12/10 11:07:07;;;;;;;42.30;28.90;;;;;;;4.78;96.16;99331.38;104961;1326;137505;-58
2021/12/10 11:09:41;;;;;;;42.90;28.00;;;;;;;4.77;96.21;99324.70;105406;1325;23006;-57
2021/12/10 11:12:17;;;;;;;43.70;28.70;;;;;;;4.76;96.17;99322.30;105188;1325;144446;-58
2021/12/10 11:14:50;;;;;;;41.90;28.90;;;;;;;4.76;96.11;99324.42;105319;1325;22524;-59
2021/12/10 11:17:30;;;;;;;41.60;27.60;;;;;;;4.76;96.18;99330.05;101919;1330;24529;-56
2021/12/10 11:20:20;;;;;;;43.20;31.00;;;;;;;4.76;96.38;99326.09;105441;1325;23397;-58
2021/12/10 11:23:00;;;;;;;45.00;29.80;;;;;;;4.76;96.42;99325.77;105178;1325;139203;-58
2021/12/10 11:25:45;;;;;;;47.90;29.10;;;;;;;4.77;96.31;99328.16;105376;1325;22559;-58
2021/12/10 11:28:19;;;;;;;42.70;30.60;;;;;;;4.76;96.44;99326.15;105290;1326;138772;-58
2021/12/10 11:30:50;;;;;;;48.20;32.80;;;;;;;4.77;96.50;99317.96;105369;1325;23077;-58
2021/12/10 11:33:23;;;;;;;50.10;32.30;;;;;;;4.78;96.52;99308.60;105309;1325;22380;-58
2021/12/10 11:35:54;;;;;;;48.50;31.30;;;;;;;4.78;96.60;99298.23;105095;1325;137282;-58